Tempos de volta de FÓRMULA 4 COPA KGV DE KART - FÓRMULA 4 / PROVA 2 - 11:45
COPA KGV DE KART 3° ETAPA - EVENTO VI a funcionar CIRCUITO COPA KGV DE KART
Tempos de volta de FÓRMULA 4 - COPA KGV DE KART - FÓRMULA 4 / PROVA 2 - 11:45


Hora do dia Volta Volta do Líder Volta Tm Velocidade
177 - RENZO ZAMBOLINI - F4 (G)
11:27:58.388 1 1 41.804 65,018
11:28:38.360 2 2 39.972 67,998
11:41:56.637 3 3 53.129 51,159
11:42:38.198 4 4 41.561 65,398
11:43:18.049 5 5 39.851 68,204
11:43:57.953 6 6 39.904 68,113
11:44:38.027 7 7 40.074 67,825
11:45:17.735 8 8 39.708 68,450
11:45:57.561 9 9 39.826 68,247
11:46:37.520 10 10 39.959 68,020
11:47:17.371 11 11 39.851 68,204
11:47:57.123 12 12 39.752 68,374
11:48:37.049 13 13 39.926 68,076
11:49:16.599 14 14 39.550 68,723
11:49:56.424 15 15 39.825 68,249
11:50:36.305 16 16 39.881 68,153
11:51:16.348 17 17 40.043 67,877
11:51:56.093 18 18 39.745 68,386
11:52:35.963 19 19 39.870 68,172
11:53:15.823 20 20 39.860 68,189
11:53:55.564 21 21 39.741 68,393
11:54:35.583 22 22 40.019 67,918
11:55:15.514 23 23 39.931 68,067
11:55:55.674 24 24 40.160 67,679
11:56:36.007 25 25 40.333 67,389
073 - GABRIEL CHINELLATO / A. CATTUCCI - F4 (G)
11:27:57.818 1 1 41.355 65,724
11:28:38.014 2 2 40.196 67,619
11:41:56.470 3 3 9:10.708 4,935
11:42:37.875 4 4 41.405 65,644
11:43:17.957 5 5 40.082 67,811
11:43:57.844 6 6 39.887 68,143
11:44:37.706 7 7 39.862 68,185
11:45:17.469 8 8 39.763 68,355
11:45:57.334 9 9 39.865 68,180
11:46:37.400 10 10 40.066 67,838
11:47:17.258 11 11 39.858 68,192
11:47:56.936 12 12 39.678 68,501
11:48:36.745 13 13 39.809 68,276
11:49:16.323 14 14 39.578 68,675
11:49:56.294 15 15 39.971 67,999
11:50:36.458 16 16 40.164 67,673
11:51:16.445 17 17 39.987 67,972
11:51:56.254 18 18 39.809 68,276
11:52:36.076 19 19 39.822 68,254
11:53:16.015 20 20 39.939 68,054
11:53:55.645 21 21 39.630 68,584
11:54:35.728 22 22 40.083 67,809
11:55:15.740 23 23 40.012 67,930
11:55:55.832 24 24 40.092 67,794
11:56:36.049 25 25 40.217 67,583
153 - MARCOS BARONE - F4 (S)
11:27:59.304 1 1 42.515 63,930
11:28:39.845 2 2 40.541 67,043
11:41:57.002 3 3 51.876 52,394
11:42:38.845 4 4 41.843 64,957
11:43:18.932 5 5 40.087 67,803
11:43:58.774 6 6 39.842 68,219
11:44:38.596 7 7 39.822 68,254
11:45:18.513 8 8 39.917 68,091
11:45:58.101 9 9 39.588 68,657
11:46:37.887 10 10 39.786 68,315
11:47:17.734 11 11 39.847 68,211
11:47:57.506 12 12 39.772 68,340
11:48:37.268 13 13 39.762 68,357
11:49:16.841 14 14 39.573 68,683
11:49:56.738 15 15 39.897 68,125
11:50:36.587 16 16 39.849 68,207
11:51:16.525 17 17 39.938 68,055
11:51:56.456 18 18 39.931 68,067
11:52:36.365 19 19 39.909 68,105
11:53:16.223 20 20 39.858 68,192
11:53:55.983 21 21 39.760 68,360
11:54:36.219 22 22 40.236 67,551
11:55:16.243 23 23 40.024 67,909
11:55:56.312 24 24 40.069 67,833
11:56:36.434 25 25 40.122 67,743
126 - ERICK DANTAS - F4 (G)
11:27:59.890 1 1 42.996 63,215
11:28:40.365 2 2 40.475 67,153
11:41:57.225 3 3 50.837 53,465
11:42:39.143 4 4 41.918 64,841
11:43:19.302 5 5 40.159 67,681
11:43:59.301 6 6 39.999 67,952
11:44:39.354 7 7 40.053 67,860
11:45:19.176 8 8 39.822 68,254
11:45:58.977 9 9 39.801 68,290
11:46:38.849 10 10 39.872 68,168
11:47:18.805 11 11 39.956 68,025
11:47:58.819 12 12 40.014 67,926
11:48:39.737 13 13 40.918 66,426
11:49:19.723 14 14 39.986 67,974
11:49:59.833 15 15 40.110 67,764
11:50:40.002 16 16 40.169 67,664
11:51:20.183 17 17 40.181 67,644
11:52:00.210 18 18 40.027 67,904
11:52:40.156 19 19 39.946 68,042
11:53:20.106 20 20 39.950 68,035
11:54:00.299 21 21 40.193 67,624
11:54:40.369 22 22 40.070 67,831
11:55:20.360 23 23 39.991 67,965
11:56:00.534 24 24 40.174 67,656
11:56:40.656 25 25 40.122 67,743
001 - R. FRANÇA / D. GODINHO - F4 (S)
11:28:03.347 1 1 45.796 59,350
11:28:43.737 2 2 40.390 67,294
11:41:57.989 3 3 47.326 57,431
11:42:41.451 4 4 43.462 62,537
11:43:21.344 5 5 39.893 68,132
11:44:01.223 6 6 39.879 68,156
11:44:41.282 7 7 40.059 67,850
11:45:20.758 8 8 39.476 68,852
11:46:00.357 9 9 39.599 68,638
11:46:39.566 10 10 39.209 69,321
11:47:18.955 11 11 39.389 69,004
11:47:58.373 12 12 39.418 68,953
11:48:40.155 13 13 41.782 65,052
11:49:21.255 14 14 41.100 66,131
11:50:02.084 15 15 40.829 66,570
11:50:42.812 16 16 40.728 66,735
11:51:23.161 17 17 40.349 67,362
11:52:02.831 18 18 39.670 68,515
11:52:42.426 19 19 39.595 68,645
11:53:21.894 20 20 39.468 68,866
11:54:01.349 21 21 39.455 68,889
11:54:40.766 22 22 39.417 68,955
11:55:20.585 23 23 39.819 68,259
11:56:00.830 24 24 40.245 67,536
11:56:41.019 25 25 40.189 67,630
144 - DGEISON DE LUCCA - F4 (S)
11:28:01.302 1 1 44.504 61,073
11:28:41.876 2 2 40.574 66,989
11:41:58.007 3 3 48.911 55,570
11:42:40.764 4 4 42.757 63,569
11:43:21.215 5 5 40.451 67,192
11:44:01.105 6 6 39.890 68,137
11:44:41.139 7 7 40.034 67,892
11:45:21.430 8 8 40.291 67,459
11:46:01.513 9 9 40.083 67,809
11:46:41.678 10 10 40.165 67,671
11:47:21.616 11 11 39.938 68,055
11:48:01.428 12 12 39.812 68,271
11:48:41.458 13 13 40.030 67,899
11:49:21.459 14 14 40.001 67,948
11:50:01.952 15 15 40.493 67,123
11:50:42.793 16 16 40.841 66,551
11:51:23.591 17 17 40.798 66,621
11:52:03.529 18 18 39.938 68,055
11:52:43.458 19 19 39.929 68,071
11:53:23.281 20 20 39.823 68,252
11:54:03.493 21 21 40.212 67,592
11:54:43.956 22 22 40.463 67,172
11:55:24.064 23 23 40.108 67,767
11:56:04.034 24 24 39.970 68,001
11:56:44.005 25 25 39.971 67,999
088 - AKIRA EGUTI - F4 (S)
11:28:00.566 1 1 43.988 61,790
11:28:40.990 2 2 40.424 67,237
11:41:57.424 3 3 49.991 54,370
11:42:40.143 4 4 42.719 63,625
11:43:20.120 5 5 39.977 67,989
11:44:00.317 6 6 40.197 67,617
11:44:40.213 7 7 39.896 68,127
11:45:19.895 8 8 39.682 68,495
11:45:59.806 9 9 39.911 68,102
11:46:39.782 10 10 39.976 67,991
11:47:19.683 11 11 39.901 68,119
11:47:59.476 12 12 39.793 68,303
11:48:40.644 13 13 41.168 66,022
11:49:21.239 14 14 40.595 66,954
11:50:01.846 15 15 40.607 66,934
11:50:42.990 16 16 41.144 66,061
11:51:23.756 17 17 40.766 66,673
11:52:03.736 18 18 39.980 67,984
11:52:43.742 19 19 40.006 67,940
11:53:23.434 20 20 39.692 68,477
11:54:03.558 21 21 40.124 67,740
11:54:44.141 22 22 40.583 66,974
11:55:24.260 23 23 40.119 67,748
11:56:04.272 24 24 40.012 67,930
11:56:44.244 25 25 39.972 67,998
045 - GABRIEL ROSA - F4 (S)
11:28:00.088 1 1 43.095 63,070
11:28:40.735 2 2 40.647 66,868
11:41:57.317 3 3 50.433 53,893
11:42:39.513 4 4 42.196 64,414
11:43:20.034 5 5 40.521 67,076
11:44:00.415 6 6 40.381 67,309
11:44:40.526 7 7 40.111 67,762
11:45:20.421 8 8 39.895 68,129
11:46:00.509 9 9 40.088 67,801
11:46:40.453 10 10 39.944 68,045
11:47:20.387 11 11 39.934 68,062
11:48:00.381 12 12 39.994 67,960
11:48:40.925 13 13 40.544 67,038
11:49:21.436 14 14 40.511 67,093
11:50:02.997 15 15 41.561 65,398
11:50:43.175 16 16 40.178 67,649
11:51:23.929 17 17 40.754 66,693
11:52:03.882 18 18 39.953 68,030
11:52:43.826 19 19 39.944 68,045
11:53:23.709 20 20 39.883 68,149
11:54:03.774 21 21 40.065 67,840
11:54:44.561 22 22 40.787 66,639
11:55:24.589 23 23 40.028 67,902
11:56:04.709 24 24 40.120 67,747
11:56:45.241 25 25 40.532 67,058
076 - HENRIQUE PETTINARI - F4 (L)
11:28:00.317 1 1 43.635 62,289
11:28:41.194 2 2 40.877 66,492
11:41:57.605 3 3 49.363 55,061
11:42:42.007 4 4 44.402 61,213
11:43:22.633 5 5 40.626 66,903
11:44:02.703 6 6 40.070 67,831
11:44:42.485 7 7 39.782 68,322
11:45:22.372 8 8 39.887 68,143
11:46:02.253 9 9 39.881 68,153
11:46:42.009 10 10 39.756 68,367
11:47:22.020 11 11 40.011 67,931
11:48:01.811 12 12 39.791 68,307
11:48:41.718 13 13 39.907 68,108
11:49:21.753 14 14 40.035 67,891
11:50:03.257 15 15 41.504 65,488
11:50:43.311 16 16 40.054 67,858
11:51:24.084 17 17 40.773 66,662
11:52:04.034 18 18 39.950 68,035
11:52:44.090 19 19 40.056 67,855
11:53:24.466 20 20 40.376 67,317
11:54:04.185 21 21 39.719 68,431
11:54:44.786 22 22 40.601 66,944
11:55:24.764 23 23 39.978 67,987
11:56:04.909 24 24 40.145 67,705
11:56:45.497 25 25 40.588 66,966
070 - ELETRIC PRODUTOS AUTOMOTIVOS - F4 (S)
11:27:58.467 1 1 41.795 65,032
11:28:38.549 2 2 40.082 67,811
11:41:56.731 3 3 52.291 51,978
11:42:38.656 4 4 41.925 64,830
11:43:18.654 5 5 39.998 67,953
11:43:58.587 6 6 39.933 68,064
11:44:38.753 7 7 40.166 67,669
11:45:18.812 8 8 40.059 67,850
11:45:58.702 9 9 39.890 68,137
11:46:38.557 10 10 39.855 68,197
11:47:18.361 11 11 39.804 68,285
11:47:58.249 12 12 39.888 68,141
11:48:40.083 13 13 41.834 64,971
11:49:21.186 14 14 41.103 66,127
11:50:07.979 15 15 46.793 58,086
11:50:48.104 16 16 40.125 67,738
11:51:28.200 17 17 40.096 67,787
11:52:08.253 18 18 40.053 67,860
11:52:48.281 19 19 40.028 67,902
11:53:28.219 20 20 39.938 68,055
11:54:08.223 21 21 40.004 67,943
11:54:48.837 22 22 40.614 66,923
11:55:29.040 23 23 40.203 67,607
11:56:09.066 24 24 40.026 67,906
11:56:49.292 25 25 40.226 67,568
044 - CHRISTIAN MARKAKIS - F4 (L)
11:28:04.451 1 1 47.291 57,474
11:28:55.861 2 2 51.410 52,869
11:42:04.802 3 3 11:43.811 3,862
11:42:46.799 4 4 41.997 64,719
11:43:27.550 5 5 40.751 66,698
11:44:07.700 6 6 40.150 67,696
11:44:47.585 7 7 39.885 68,146
11:45:27.685 8 8 40.100 67,781
11:46:07.433 9 9 39.748 68,381
11:46:47.737 10 10 40.304 67,437
11:47:27.973 11 11 40.236 67,551
11:48:08.293 12 12 40.320 67,411
11:48:49.253 13 13 40.960 66,357
11:49:29.551 14 14 40.298 67,448
11:50:10.065 15 15 40.514 67,088
11:50:50.060 16 16 39.995 67,958
11:51:30.153 17 17 40.093 67,792
11:52:10.084 18 18 39.931 68,067
11:52:49.873 19 19 39.789 68,310
11:53:29.703 20 20 39.830 68,240
11:54:09.593 21 21 39.890 68,137
11:54:49.426 22 22 39.833 68,235
11:55:29.412 23 23 39.986 67,974
11:56:09.308 24 24 39.896 68,127
11:56:49.876 25 25 40.568 66,999
147 - THIAGO LOPES - F4 (S)
11:28:00.851 1 1 43.867 61,960
11:28:41.424 2 2 40.573 66,990
11:41:57.736 3 3 49.124 55,329
11:42:41.334 4 4 43.598 62,342
11:43:22.533 5 5 41.199 65,972
11:44:02.933 6 6 40.400 67,277
11:44:42.937 7 7 40.004 67,943
11:45:23.119 8 8 40.182 67,642
11:46:03.240 9 9 40.121 67,745
11:46:43.516 10 10 40.276 67,484
11:47:23.663 11 11 40.147 67,701
11:48:04.384 12 12 40.721 66,747
11:48:44.493 13 13 40.109 67,765
11:49:24.464 14 14 39.971 67,999
11:50:05.009 15 15 40.545 67,037
11:50:45.524 16 16 40.515 67,086
11:51:25.920 17 17 40.396 67,284
11:52:06.417 18 18 40.497 67,116
11:52:46.833 19 19 40.416 67,251
11:53:27.394 20 20 40.561 67,010
11:54:07.934 21 21 40.540 67,045
11:54:48.699 22 22 40.765 66,675
11:55:30.026 23 23 41.327 65,768
11:56:10.546 24 24 40.520 67,078
11:56:51.275 25 25 40.729 66,734
113 - CARLOS TOLEDO PIZA - F4 (L)
11:28:02.365 1 1 45.104 60,261
11:28:43.131 2 2 40.766 66,673
11:41:57.885 3 3 47.440 57,293
11:42:41.965 4 4 44.080 61,661
11:43:24.224 5 5 42.259 64,318
11:44:04.828 6 6 40.604 66,939
11:44:45.230 7 7 40.402 67,274
11:45:25.520 8 8 40.290 67,461
11:46:05.832 9 9 40.312 67,424
11:46:46.155 10 10 40.323 67,406
11:47:26.596 11 11 40.441 67,209
11:48:07.788 12 12 41.192 65,984
11:48:48.967 13 13 41.179 66,005
11:49:29.284 14 14 40.317 67,416
11:50:10.601 15 15 41.317 65,784
11:50:51.035 16 16 40.434 67,221
11:51:31.645 17 17 40.610 66,929
11:52:12.297 18 18 40.652 66,860
11:52:52.790 19 19 40.493 67,123
11:53:33.207 20 20 40.417 67,249
11:54:13.628 21 21 40.421 67,242
11:54:53.921 22 22 40.293 67,456
11:55:34.385 23 23 40.464 67,171
11:56:14.849 24 24 40.464 67,171
11:56:55.325 25 25 40.476 67,151
016 - JL OLIVEIRA - F4 (L)
11:28:05.224 1 1 47.732 56,943
11:28:46.624 2 2 41.400 65,652
11:41:58.761 3 3 46.087 58,975
11:42:43.584 4 4 44.823 60,639
11:43:25.230 5 5 41.646 65,264
11:44:05.754 6 6 40.524 67,071
11:44:46.391 7 7 40.637 66,885
11:45:26.949 8 8 40.558 67,015
11:46:07.262 9 9 40.313 67,422
11:46:47.571 10 10 40.309 67,429
11:47:27.717 11 11 40.146 67,703
11:48:08.177 12 12 40.460 67,177
11:48:49.670 13 13 41.493 65,505
11:49:29.928 14 14 40.258 67,515
11:50:10.826 15 15 40.898 66,458
11:50:51.950 16 16 41.124 66,093
11:51:32.364 17 17 40.414 67,254
11:52:12.648 18 18 40.284 67,471
11:52:52.983 19 19 40.335 67,386
11:53:33.657 20 20 40.674 66,824
11:54:13.982 21 21 40.325 67,402
11:54:54.379 22 22 40.397 67,282
11:55:34.668 23 23 40.289 67,463
11:56:15.225 24 24 40.557 67,017
11:56:55.798 25 25 40.573 66,990
008 - CARLOS COMPARATTO - F4 (S)
11:28:06.651 1 1 49.496 54,914
11:28:47.499 2 2 40.848 66,539
11:41:59.068 3 3 45.666 59,519
11:42:43.188 4 4 44.120 61,605
11:43:24.969 5 5 41.781 65,053
11:44:05.392 6 6 40.423 67,239
11:44:45.747 7 7 40.355 67,352
11:45:25.977 8 8 40.230 67,562
11:46:06.146 9 9 40.169 67,664
11:46:46.518 10 10 40.372 67,324
11:47:26.827 11 11 40.309 67,429
11:48:07.439 12 12 40.612 66,926
11:48:50.285 13 13 42.846 63,436
11:49:30.483 14 14 40.198 67,615
11:50:10.975 15 15 40.492 67,124
11:50:51.319 16 16 40.344 67,371
11:51:31.835 17 17 40.516 67,085
11:52:11.869 18 18 40.034 67,892
11:52:52.010 19 19 40.141 67,711
11:53:32.272 20 20 40.262 67,508
11:54:12.489 21 21 40.217 67,583
11:54:52.688 22 22 40.199 67,614
11:55:32.998 23 23 40.310 67,427
11:56:13.191 24 24 40.193 67,624
11:56:53.336 25 25 40.145 67,705
797 - EDUARDO PEREZ / THIAGO MORAES - F4 (S)
11:29:12.105 1 2 1:54.737 23,689
11:41:59.184 2 3 45.120 60,239
11:42:42.381 3 4 43.197 62,921
11:43:23.615 4 5 41.234 65,916
11:44:03.870 5 6 40.255 67,520
11:44:43.597 6 7 39.727 68,417
11:45:24.367 7 8 40.770 66,667
11:46:04.467 8 9 40.100 67,781
11:46:44.190 9 10 39.723 68,424
11:47:24.005 10 11 39.815 68,266
11:48:04.116 11 12 40.111 67,762
11:48:44.094 12 13 39.978 67,987
11:49:23.851 13 14 39.757 68,365
11:50:03.711 14 15 39.860 68,189
11:50:43.710 15 16 39.999 67,952
11:51:24.424 16 17 40.714 66,758
11:52:04.498 17 18 40.074 67,825
11:52:44.386 18 19 39.888 68,141
11:53:24.381 19 20 39.995 67,958
11:54:03.990 20 21 39.609 68,621
11:54:44.437 21 22 40.447 67,199
11:55:24.409 22 23 39.972 67,998
11:56:04.591 23 24 40.182 67,642
11:56:44.908 24 25 40.317 67,416
005 - DOMINGOS IORIO / F. MEIRA - F4 (S)
11:28:04.929 1 1 47.218 57,563
11:28:46.231 2 2 41.302 65,808
11:41:58.268 3 3 46.239 58,782
11:42:42.671 4 4 44.403 61,212
11:43:24.678 5 5 42.007 64,704
11:44:05.242 6 6 40.564 67,005
11:44:45.460 7 7 40.218 67,582
11:45:25.752 8 8 40.292 67,458
11:46:05.954 9 9 40.202 67,609
11:46:46.451 10 10 40.497 67,116
11:47:26.662 11 11 40.211 67,593
11:48:07.211 12 12 40.549 67,030
11:48:53.107 13 13 45.896 59,221
11:49:33.773 14 14 40.666 66,837
11:50:14.796 15 15 41.023 66,256
11:50:55.308 16 16 40.512 67,091
11:51:35.602 17 17 40.294 67,454
11:52:16.273 18 18 40.671 66,829
11:52:57.290 19 19 41.017 66,265
11:53:38.795 20 20 41.505 65,486
11:54:20.113 21 21 41.318 65,782
11:55:01.264 22 22 41.151 66,049
11:55:44.130 23 23 42.866 63,407
097 - THYAGO MORAES / MARCO REZENDE - F4 (L)
11:27:59.346 1 1 42.859 63,417
11:28:40.217 2 2 40.871 66,502
11:41:57.126 3 3 51.502 52,775
11:42:40.326 4 4 43.200 62,917
11:43:20.683 5 5 40.357 67,349
11:44:00.860 6 6 40.177 67,651
11:44:41.623 7 7 40.763 66,678
11:45:21.585 8 8 39.962 68,015
11:46:01.728 9 9 40.143 67,708
11:46:41.853 10 10 40.125 67,738
11:47:21.762 11 11 39.909 68,105
11:48:01.683 12 12 39.921 68,084
11:48:41.566 13 13 39.883 68,149
11:49:21.649 14 14 40.083 67,809
031 - AUGUSTO CHAGAS - F4 (L)
11:28:03.180 1 1 45.846 59,285
11:28:44.544 2 2 41.364 65,709
11:41:58.263 3 3 46.805 58,071
11:42:42.965 4 4 44.702 60,803
11:43:24.512 5 5 41.547 65,420
11:44:05.151 6 6 40.639 66,882
11:44:46.180 7 7 41.029 66,246
11:45:26.379 8 8 40.199 67,614
11:46:06.639 9 9 40.260 67,511
11:46:46.892 10 10 40.253 67,523
11:47:27.064 11 11 40.172 67,659
11:48:07.632 12 12 40.568 66,999
Gerada em 04/09/2021 13:24